sensor_id;sensor_type;location;lat;lon;timestamp;P1;durP1;ratioP1;P2;durP2;ratioP2
12228;SDS011;6177;52.402;9.800;2024-01-30T00:02:16;8.87;;;8.10;;
12228;SDS011;6177;52.402;9.800;2024-01-30T00:04:41;8.83;;;8.13;;
12228;SDS011;6177;52.402;9.800;2024-01-30T00:07:07;8.90;;;8.10;;
12228;SDS011;6177;52.402;9.800;2024-01-30T00:09:32;8.73;;;8.03;;
12228;SDS011;6177;52.402;9.800;2024-01-30T00:11:58;9.13;;;8.43;;
12228;SDS011;6177;52.402;9.800;2024-01-30T00:14:26;9.57;;;8.67;;
12228;SDS011;6177;52.402;9.800;2024-01-30T00:16:51;9.10;;;8.30;;
12228;SDS011;6177;52.402;9.800;2024-01-30T00:19:17;9.23;;;8.47;;
12228;SDS011;6177;52.402;9.800;2024-01-30T00:21:43;9.00;;;8.30;;
12228;SDS011;6177;52.402;9.800;2024-01-30T00:24:08;9.33;;;8.20;;
12228;SDS011;6177;52.402;9.800;2024-01-30T00:26:34;9.17;;;8.50;;
12228;SDS011;6177;52.402;9.800;2024-01-30T00:29:00;9.03;;;8.27;;
12228;SDS011;6177;52.402;9.800;2024-01-30T00:31:25;9.33;;;8.43;;
12228;SDS011;6177;52.402;9.800;2024-01-30T00:33:51;10.00;;;9.10;;
12228;SDS011;6177;52.402;9.800;2024-01-30T00:36:16;9.03;;;8.30;;
12228;SDS011;6177;52.402;9.800;2024-01-30T00:38:42;9.73;;;8.93;;
12228;SDS011;6177;52.402;9.800;2024-01-30T00:41:08;9.10;;;8.30;;
12228;SDS011;6177;52.402;9.800;2024-01-30T00:43:34;8.47;;;7.77;;
12228;SDS011;6177;52.402;9.800;2024-01-30T00:46:00;9.60;;;8.80;;
12228;SDS011;6177;52.402;9.800;2024-01-30T00:48:26;9.53;;;8.53;;
12228;SDS011;6177;52.402;9.800;2024-01-30T00:50:51;9.83;;;8.97;;
12228;SDS011;6177;52.402;9.800;2024-01-30T00:53:17;9.10;;;8.35;;
12228;SDS011;6177;52.402;9.800;2024-01-30T00:55:43;9.53;;;8.73;;
12228;SDS011;6177;52.402;9.800;2024-01-30T00:58:08;9.60;;;8.60;;
12228;SDS011;6177;52.402;9.800;2024-01-30T01:00:34;9.33;;;8.63;;
12228;SDS011;6177;52.402;9.800;2024-01-30T01:02:59;8.80;;;8.10;;
12228;SDS011;6177;52.402;9.800;2024-01-30T01:05:26;9.50;;;8.63;;
12228;SDS011;6177;52.402;9.800;2024-01-30T01:07:52;9.27;;;8.13;;
12228;SDS011;6177;52.402;9.800;2024-01-30T01:10:18;9.17;;;8.37;;
12228;SDS011;6177;52.402;9.800;2024-01-30T01:12:44;9.73;;;8.60;;
12228;SDS011;6177;52.402;9.800;2024-01-30T01:15:10;9.40;;;8.60;;
12228;SDS011;6177;52.402;9.800;2024-01-30T01:17:36;10.03;;;9.13;;
12228;SDS011;6177;52.402;9.800;2024-01-30T01:20:02;9.27;;;8.47;;
12228;SDS011;6177;52.402;9.800;2024-01-30T01:22:28;10.37;;;9.37;;
12228;SDS011;6177;52.402;9.800;2024-01-30T01:24:54;9.43;;;8.73;;
12228;SDS011;6177;52.402;9.800;2024-01-30T01:27:19;9.50;;;8.67;;
12228;SDS011;6177;52.402;9.800;2024-01-30T01:29:46;8.83;;;8.23;;
12228;SDS011;6177;52.402;9.800;2024-01-30T01:32:11;9.33;;;8.33;;
12228;SDS011;6177;52.402;9.800;2024-01-30T01:34:37;9.67;;;8.87;;
12228;SDS011;6177;52.402;9.800;2024-01-30T01:37:02;9.63;;;8.83;;
12228;SDS011;6177;52.402;9.800;2024-01-30T01:39:28;9.57;;;8.73;;
12228;SDS011;6177;52.402;9.800;2024-01-30T01:41:53;9.73;;;8.90;;
12228;SDS011;6177;52.402;9.800;2024-01-30T01:44:19;9.70;;;8.77;;
12228;SDS011;6177;52.402;9.800;2024-01-30T01:46:45;9.50;;;8.63;;
12228;SDS011;6177;52.402;9.800;2024-01-30T01:49:11;8.97;;;8.30;;
12228;SDS011;6177;52.402;9.800;2024-01-30T01:51:37;9.23;;;8.43;;
12228;SDS011;6177;52.402;9.800;2024-01-30T01:54:04;9.07;;;8.33;;
12228;SDS011;6177;52.402;9.800;2024-01-30T01:56:30;8.53;;;7.73;;
12228;SDS011;6177;52.402;9.800;2024-01-30T01:58:58;10.17;;;9.37;;
12228;SDS011;6177;52.402;9.800;2024-01-30T02:01:25;9.00;;;8.20;;
12228;SDS011;6177;52.402;9.800;2024-01-30T02:03:51;9.50;;;8.53;;
12228;SDS011;6177;52.402;9.800;2024-01-30T02:06:17;9.50;;;8.60;;
12228;SDS011;6177;52.402;9.800;2024-01-30T02:08:42;9.77;;;8.87;;
12228;SDS011;6177;52.402;9.800;2024-01-30T02:11:08;9.60;;;8.77;;
12228;SDS011;6177;52.402;9.800;2024-01-30T02:13:35;9.57;;;8.73;;
12228;SDS011;6177;52.402;9.800;2024-01-30T02:16:01;10.23;;;9.30;;
12228;SDS011;6177;52.402;9.800;2024-01-30T02:18:26;9.90;;;9.00;;
12228;SDS011;6177;52.402;9.800;2024-01-30T02:20:53;10.40;;;9.50;;
12228;SDS011;6177;52.402;9.800;2024-01-30T02:23:19;10.13;;;9.23;;
12228;SDS011;6177;52.402;9.800;2024-01-30T02:25:45;9.27;;;8.50;;
12228;SDS011;6177;52.402;9.800;2024-01-30T02:28:11;9.70;;;8.90;;
12228;SDS011;6177;52.402;9.800;2024-01-30T02:30:39;11.20;;;10.20;;
12228;SDS011;6177;52.402;9.800;2024-01-30T02:33:05;10.00;;;9.20;;
12228;SDS011;6177;52.402;9.800;2024-01-30T02:35:31;10.20;;;9.27;;
12228;SDS011;6177;52.402;9.800;2024-01-30T02:37:57;10.53;;;9.23;;
12228;SDS011;6177;52.402;9.800;2024-01-30T02:40:22;10.17;;;9.37;;
12228;SDS011;6177;52.402;9.800;2024-01-30T02:42:48;10.40;;;9.20;;
12228;SDS011;6177;52.402;9.800;2024-01-30T02:45:13;10.50;;;9.50;;
12228;SDS011;6177;52.402;9.800;2024-01-30T02:47:40;10.30;;;9.40;;
12228;SDS011;6177;52.402;9.800;2024-01-30T02:50:05;9.70;;;8.97;;
12228;SDS011;6177;52.402;9.800;2024-01-30T02:52:31;9.97;;;9.07;;
12228;SDS011;6177;52.402;9.800;2024-01-30T02:54:57;9.80;;;9.00;;
12228;SDS011;6177;52.402;9.800;2024-01-30T02:57:23;10.23;;;9.33;;
12228;SDS011;6177;52.402;9.800;2024-01-30T02:59:48;10.53;;;9.53;;
12228;SDS011;6177;52.402;9.800;2024-01-30T03:02:14;9.87;;;9.07;;
12228;SDS011;6177;52.402;9.800;2024-01-30T03:04:41;10.33;;;9.40;;
12228;SDS011;6177;52.402;9.800;2024-01-30T03:07:07;9.63;;;8.77;;
12228;SDS011;6177;52.402;9.800;2024-01-30T03:09:32;10.60;;;9.40;;
12228;SDS011;6177;52.402;9.800;2024-01-30T03:11:58;10.40;;;9.40;;
12228;SDS011;6177;52.402;9.800;2024-01-30T03:14:24;9.90;;;8.90;;
12228;SDS011;6177;52.402;9.800;2024-01-30T03:16:49;10.57;;;9.50;;
12228;SDS011;6177;52.402;9.800;2024-01-30T03:19:14;9.90;;;9.00;;
12228;SDS011;6177;52.402;9.800;2024-01-30T03:21:40;10.07;;;9.20;;
12228;SDS011;6177;52.402;9.800;2024-01-30T03:24:07;10.43;;;9.53;;
12228;SDS011;6177;52.402;9.800;2024-01-30T03:26:32;10.50;;;9.43;;
12228;SDS011;6177;52.402;9.800;2024-01-30T03:28:58;10.73;;;9.70;;
12228;SDS011;6177;52.402;9.800;2024-01-30T03:31:23;10.10;;;9.20;;
12228;SDS011;6177;52.402;9.800;2024-01-30T03:33:49;10.40;;;9.53;;
12228;SDS011;6177;52.402;9.800;2024-01-30T03:36:15;9.97;;;8.97;;
12228;SDS011;6177;52.402;9.800;2024-01-30T03:38:40;11.10;;;10.10;;
12228;SDS011;6177;52.402;9.800;2024-01-30T03:41:09;10.70;;;9.70;;
12228;SDS011;6177;52.402;9.800;2024-01-30T03:43:35;10.23;;;9.33;;
12228;SDS011;6177;52.402;9.800;2024-01-30T03:46:01;10.80;;;9.90;;
12228;SDS011;6177;52.402;9.800;2024-01-30T03:48:28;10.90;;;9.80;;
12228;SDS011;6177;52.402;9.800;2024-01-30T03:50:53;10.03;;;9.17;;
12228;SDS011;6177;52.402;9.800;2024-01-30T03:53:19;10.07;;;9.17;;
12228;SDS011;6177;52.402;9.800;2024-01-30T03:55:44;10.03;;;9.23;;
12228;SDS011;6177;52.402;9.800;2024-01-30T03:58:10;10.67;;;9.27;;
12228;SDS011;6177;52.402;9.800;2024-01-30T04:00:35;12.23;;;10.03;;
12228;SDS011;6177;52.402;9.800;2024-01-30T04:03:01;10.07;;;9.17;;
12228;SDS011;6177;52.402;9.800;2024-01-30T04:05:27;10.30;;;9.50;;
12228;SDS011;6177;52.402;9.800;2024-01-30T04:07:52;9.63;;;8.73;;
12228;SDS011;6177;52.402;9.800;2024-01-30T04:10:18;11.53;;;9.73;;
12228;SDS011;6177;52.402;9.800;2024-01-30T04:12:43;10.17;;;9.37;;
12228;SDS011;6177;52.402;9.800;2024-01-30T04:15:09;11.00;;;9.80;;
12228;SDS011;6177;52.402;9.800;2024-01-30T04:17:34;10.47;;;9.17;;
12228;SDS011;6177;52.402;9.800;2024-01-30T04:20:00;11.50;;;9.80;;
12228;SDS011;6177;52.402;9.800;2024-01-30T04:22:25;10.40;;;9.43;;
12228;SDS011;6177;52.402;9.800;2024-01-30T04:24:51;9.63;;;8.73;;
12228;SDS011;6177;52.402;9.800;2024-01-30T04:27:16;9.57;;;8.57;;
12228;SDS011;6177;52.402;9.800;2024-01-30T04:29:42;10.10;;;8.93;;
12228;SDS011;6177;52.402;9.800;2024-01-30T04:32:07;9.30;;;8.50;;
12228;SDS011;6177;52.402;9.800;2024-01-30T04:34:34;10.73;;;9.57;;
12228;SDS011;6177;52.402;9.800;2024-01-30T04:36:59;10.23;;;9.23;;
12228;SDS011;6177;52.402;9.800;2024-01-30T04:39:25;10.40;;;8.77;;
12228;SDS011;6177;52.402;9.800;2024-01-30T04:41:50;9.57;;;8.77;;
12228;SDS011;6177;52.402;9.800;2024-01-30T04:44:17;9.33;;;8.50;;
12228;SDS011;6177;52.402;9.800;2024-01-30T04:46:42;10.47;;;9.53;;
12228;SDS011;6177;52.402;9.800;2024-01-30T04:49:08;8.93;;;8.13;;
12228;SDS011;6177;52.402;9.800;2024-01-30T04:51:33;9.70;;;8.80;;
12228;SDS011;6177;52.402;9.800;2024-01-30T04:53:59;9.80;;;9.00;;
12228;SDS011;6177;52.402;9.800;2024-01-30T04:56:24;9.47;;;8.67;;
12228;SDS011;6177;52.402;9.800;2024-01-30T04:58:51;9.37;;;8.50;;
12228;SDS011;6177;52.402;9.800;2024-01-30T05:01:16;9.73;;;8.40;;
12228;SDS011;6177;52.402;9.800;2024-01-30T05:03:42;10.07;;;9.27;;
12228;SDS011;6177;52.402;9.800;2024-01-30T05:06:08;9.43;;;8.53;;
12228;SDS011;6177;52.402;9.800;2024-01-30T05:08:34;9.13;;;8.50;;
12228;SDS011;6177;52.402;9.800;2024-01-30T05:11:02;9.20;;;8.30;;
12228;SDS011;6177;52.402;9.800;2024-01-30T05:13:31;10.60;;;8.40;;
12228;SDS011;6177;52.402;9.800;2024-01-30T05:15:57;8.77;;;8.10;;
12228;SDS011;6177;52.402;9.800;2024-01-30T05:18:23;9.50;;;8.70;;
12228;SDS011;6177;52.402;9.800;2024-01-30T05:20:49;9.73;;;8.93;;
12228;SDS011;6177;52.402;9.800;2024-01-30T05:23:15;9.50;;;8.60;;
12228;SDS011;6177;52.402;9.800;2024-01-30T05:25:41;9.63;;;8.83;;
12228;SDS011;6177;52.402;9.800;2024-01-30T05:28:07;9.93;;;9.03;;
12228;SDS011;6177;52.402;9.800;2024-01-30T05:30:32;8.43;;;7.83;;
12228;SDS011;6177;52.402;9.800;2024-01-30T05:32:58;11.33;;;8.17;;
12228;SDS011;6177;52.402;9.800;2024-01-30T05:35:23;9.10;;;8.20;;
12228;SDS011;6177;52.402;9.800;2024-01-30T05:37:49;9.10;;;8.30;;
12228;SDS011;6177;52.402;9.800;2024-01-30T05:40:15;9.20;;;8.40;;
12228;SDS011;6177;52.402;9.800;2024-01-30T05:42:41;9.13;;;8.33;;
12228;SDS011;6177;52.402;9.800;2024-01-30T05:45:06;9.57;;;8.70;;
12228;SDS011;6177;52.402;9.800;2024-01-30T05:47:33;9.00;;;8.20;;
12228;SDS011;6177;52.402;9.800;2024-01-30T05:49:58;12.43;;;9.93;;
12228;SDS011;6177;52.402;9.800;2024-01-30T05:52:23;9.60;;;8.67;;
12228;SDS011;6177;52.402;9.800;2024-01-30T05:54:49;9.87;;;9.00;;
12228;SDS011;6177;52.402;9.800;2024-01-30T05:57:14;10.40;;;9.20;;
12228;SDS011;6177;52.402;9.800;2024-01-30T05:59:40;10.23;;;8.90;;
12228;SDS011;6177;52.402;9.800;2024-01-30T06:02:06;9.07;;;8.27;;
12228;SDS011;6177;52.402;9.800;2024-01-30T06:04:32;8.90;;;8.00;;
12228;SDS011;6177;52.402;9.800;2024-01-30T06:06:57;8.97;;;8.13;;
12228;SDS011;6177;52.402;9.800;2024-01-30T06:09:23;9.73;;;8.73;;
12228;SDS011;6177;52.402;9.800;2024-01-30T06:11:48;8.70;;;7.90;;
12228;SDS011;6177;52.402;9.800;2024-01-30T06:14:14;9.13;;;8.33;;
12228;SDS011;6177;52.402;9.800;2024-01-30T06:16:39;8.90;;;8.20;;
12228;SDS011;6177;52.402;9.800;2024-01-30T06:19:05;9.93;;;8.97;;
12228;SDS011;6177;52.402;9.800;2024-01-30T06:21:32;9.33;;;8.53;;
12228;SDS011;6177;52.402;9.800;2024-01-30T06:24:01;9.20;;;8.37;;
12228;SDS011;6177;52.402;9.800;2024-01-30T06:26:27;9.70;;;8.90;;
12228;SDS011;6177;52.402;9.800;2024-01-30T06:28:53;9.63;;;8.80;;
12228;SDS011;6177;52.402;9.800;2024-01-30T06:31:20;9.70;;;8.80;;
12228;SDS011;6177;52.402;9.800;2024-01-30T06:33:49;10.47;;;9.50;;
12228;SDS011;6177;52.402;9.800;2024-01-30T06:36:15;9.00;;;8.20;;
12228;SDS011;6177;52.402;9.800;2024-01-30T06:38:40;9.80;;;8.87;;
12228;SDS011;6177;52.402;9.800;2024-01-30T06:41:06;9.40;;;8.50;;
12228;SDS011;6177;52.402;9.800;2024-01-30T06:43:32;9.70;;;8.70;;
12228;SDS011;6177;52.402;9.800;2024-01-30T06:45:57;10.37;;;9.10;;
12228;SDS011;6177;52.402;9.800;2024-01-30T06:48:23;10.57;;;9.67;;
12228;SDS011;6177;52.402;9.800;2024-01-30T06:50:48;9.53;;;8.70;;
12228;SDS011;6177;52.402;9.800;2024-01-30T06:53:14;9.10;;;8.30;;
12228;SDS011;6177;52.402;9.800;2024-01-30T06:55:40;10.07;;;9.07;;
12228;SDS011;6177;52.402;9.800;2024-01-30T06:58:05;10.47;;;9.57;;
12228;SDS011;6177;52.402;9.800;2024-01-30T07:00:31;9.67;;;8.87;;
12228;SDS011;6177;52.402;9.800;2024-01-30T07:02:57;9.67;;;8.77;;
12228;SDS011;6177;52.402;9.800;2024-01-30T07:05:22;11.07;;;8.67;;
12228;SDS011;6177;52.402;9.800;2024-01-30T07:07:48;10.03;;;9.13;;
12228;SDS011;6177;52.402;9.800;2024-01-30T07:10:13;10.23;;;9.17;;
12228;SDS011;6177;52.402;9.800;2024-01-30T07:12:39;10.30;;;9.50;;
12228;SDS011;6177;52.402;9.800;2024-01-30T07:15:05;9.43;;;8.57;;
12228;SDS011;6177;52.402;9.800;2024-01-30T07:17:33;9.77;;;8.83;;
12228;SDS011;6177;52.402;9.800;2024-01-30T07:19:59;9.40;;;8.60;;
12228;SDS011;6177;52.402;9.800;2024-01-30T07:22:24;10.33;;;9.33;;
12228;SDS011;6177;52.402;9.800;2024-01-30T07:24:50;9.43;;;8.63;;
12228;SDS011;6177;52.402;9.800;2024-01-30T07:27:17;9.47;;;8.67;;
12228;SDS011;6177;52.402;9.800;2024-01-30T07:29:43;9.40;;;8.40;;
12228;SDS011;6177;52.402;9.800;2024-01-30T07:32:09;9.63;;;8.80;;
12228;SDS011;6177;52.402;9.800;2024-01-30T07:34:34;11.00;;;8.73;;
12228;SDS011;6177;52.402;9.800;2024-01-30T07:37:01;10.70;;;9.70;;
12228;SDS011;6177;52.402;9.800;2024-01-30T07:39:27;9.17;;;8.37;;
12228;SDS011;6177;52.402;9.800;2024-01-30T07:41:53;9.43;;;8.70;;
12228;SDS011;6177;52.402;9.800;2024-01-30T07:44:18;8.87;;;8.20;;
12228;SDS011;6177;52.402;9.800;2024-01-30T07:46:44;9.77;;;8.93;;
12228;SDS011;6177;52.402;9.800;2024-01-30T07:49:09;9.17;;;8.43;;
12228;SDS011;6177;52.402;9.800;2024-01-30T07:51:35;9.77;;;8.87;;
12228;SDS011;6177;52.402;9.800;2024-01-30T07:54:00;9.97;;;8.97;;
12228;SDS011;6177;52.402;9.800;2024-01-30T07:56:26;9.73;;;8.80;;
12228;SDS011;6177;52.402;9.800;2024-01-30T07:58:52;9.37;;;8.47;;
12228;SDS011;6177;52.402;9.800;2024-01-30T08:01:17;9.37;;;8.67;;
12228;SDS011;6177;52.402;9.800;2024-01-30T08:03:43;9.80;;;8.33;;
12228;SDS011;6177;52.402;9.800;2024-01-30T08:06:09;9.37;;;8.47;;
12228;SDS011;6177;52.402;9.800;2024-01-30T08:08:35;8.90;;;8.10;;
12228;SDS011;6177;52.402;9.800;2024-01-30T08:11:00;8.97;;;8.07;;
12228;SDS011;6177;52.402;9.800;2024-01-30T08:13:26;8.93;;;8.23;;
12228;SDS011;6177;52.402;9.800;2024-01-30T08:15:52;9.57;;;8.83;;
12228;SDS011;6177;52.402;9.800;2024-01-30T08:18:18;9.17;;;8.37;;
12228;SDS011;6177;52.402;9.800;2024-01-30T08:20:43;8.83;;;8.03;;
12228;SDS011;6177;52.402;9.800;2024-01-30T08:23:08;9.07;;;7.90;;
12228;SDS011;6177;52.402;9.800;2024-01-30T08:25:35;8.63;;;7.93;;
12228;SDS011;6177;52.402;9.800;2024-01-30T08:28:01;8.60;;;7.80;;
12228;SDS011;6177;52.402;9.800;2024-01-30T08:30:27;8.37;;;7.70;;
12228;SDS011;6177;52.402;9.800;2024-01-30T08:32:52;9.47;;;8.57;;
12228;SDS011;6177;52.402;9.800;2024-01-30T08:35:18;9.17;;;8.23;;
12228;SDS011;6177;52.402;9.800;2024-01-30T08:37:43;8.47;;;7.67;;
12228;SDS011;6177;52.402;9.800;2024-01-30T08:40:09;8.37;;;7.77;;
12228;SDS011;6177;52.402;9.800;2024-01-30T08:42:35;8.80;;;7.50;;
12228;SDS011;6177;52.402;9.800;2024-01-30T08:45:00;8.43;;;7.47;;
12228;SDS011;6177;52.402;9.800;2024-01-30T08:47:26;8.77;;;7.90;;
12228;SDS011;6177;52.402;9.800;2024-01-30T08:49:52;8.27;;;7.67;;
12228;SDS011;6177;52.402;9.800;2024-01-30T08:52:17;9.20;;;8.30;;
12228;SDS011;6177;52.402;9.800;2024-01-30T08:54:43;8.47;;;7.70;;
12228;SDS011;6177;52.402;9.800;2024-01-30T08:57:08;8.20;;;7.50;;
12228;SDS011;6177;52.402;9.800;2024-01-30T08:59:34;8.50;;;7.70;;
12228;SDS011;6177;52.402;9.800;2024-01-30T09:01:59;8.77;;;7.60;;
12228;SDS011;6177;52.402;9.800;2024-01-30T09:04:25;8.17;;;7.37;;
12228;SDS011;6177;52.402;9.800;2024-01-30T09:06:51;8.30;;;7.60;;
12228;SDS011;6177;52.402;9.800;2024-01-30T09:09:17;8.50;;;7.37;;
12228;SDS011;6177;52.402;9.800;2024-01-30T09:11:43;8.80;;;8.20;;
12228;SDS011;6177;52.402;9.800;2024-01-30T09:14:08;8.90;;;8.07;;
12228;SDS011;6177;52.402;9.800;2024-01-30T09:16:34;9.43;;;7.73;;
12228;SDS011;6177;52.402;9.800;2024-01-30T09:19:00;9.20;;;8.13;;
12228;SDS011;6177;52.402;9.800;2024-01-30T09:21:25;7.97;;;7.37;;
12228;SDS011;6177;52.402;9.800;2024-01-30T09:23:54;7.87;;;7.27;;
12228;SDS011;6177;52.402;9.800;2024-01-30T09:26:20;8.33;;;7.47;;
12228;SDS011;6177;52.402;9.800;2024-01-30T09:28:46;7.77;;;7.07;;
12228;SDS011;6177;52.402;9.800;2024-01-30T09:31:11;8.77;;;7.20;;
12228;SDS011;6177;52.402;9.800;2024-01-30T09:33:37;7.20;;;6.70;;
12228;SDS011;6177;52.402;9.800;2024-01-30T09:36:04;8.30;;;7.63;;
12228;SDS011;6177;52.402;9.800;2024-01-30T09:38:30;7.90;;;7.30;;
12228;SDS011;6177;52.402;9.800;2024-01-30T09:40:56;7.97;;;7.27;;
12228;SDS011;6177;52.402;9.800;2024-01-30T09:43:24;7.57;;;6.87;;
12228;SDS011;6177;52.402;9.800;2024-01-30T09:45:50;7.67;;;7.07;;
12228;SDS011;6177;52.402;9.800;2024-01-30T09:48:15;7.67;;;7.07;;
12228;SDS011;6177;52.402;9.800;2024-01-30T09:50:41;7.23;;;6.63;;
12228;SDS011;6177;52.402;9.800;2024-01-30T09:53:07;7.70;;;7.07;;
12228;SDS011;6177;52.402;9.800;2024-01-30T09:55:34;8.47;;;7.67;;
12228;SDS011;6177;52.402;9.800;2024-01-30T09:58:00;8.50;;;7.60;;
12228;SDS011;6177;52.402;9.800;2024-01-30T10:00:26;7.67;;;7.07;;
12228;SDS011;6177;52.402;9.800;2024-01-30T10:02:52;7.67;;;7.07;;
12228;SDS011;6177;52.402;9.800;2024-01-30T10:05:19;7.60;;;7.03;;
12228;SDS011;6177;52.402;9.800;2024-01-30T10:07:55;7.40;;;6.73;;
12228;SDS011;6177;52.402;9.800;2024-01-30T10:10:22;7.50;;;7.00;;
12228;SDS011;6177;52.402;9.800;2024-01-30T10:12:48;7.77;;;7.13;;
12228;SDS011;6177;52.402;9.800;2024-01-30T10:15:14;7.27;;;6.70;;
12228;SDS011;6177;52.402;9.800;2024-01-30T10:17:40;7.23;;;6.67;;
12228;SDS011;6177;52.402;9.800;2024-01-30T10:20:07;7.97;;;7.27;;
12228;SDS011;6177;52.402;9.800;2024-01-30T10:22:33;7.33;;;6.77;;
12228;SDS011;6177;52.402;9.800;2024-01-30T10:25:00;7.23;;;6.77;;
12228;SDS011;6177;52.402;9.800;2024-01-30T10:27:26;7.10;;;6.53;;
12228;SDS011;6177;52.402;9.800;2024-01-30T10:29:52;6.73;;;6.20;;
12228;SDS011;6177;52.402;9.800;2024-01-30T10:32:18;6.77;;;6.17;;
12228;SDS011;6177;52.402;9.800;2024-01-30T10:34:46;7.27;;;6.67;;
12228;SDS011;6177;52.402;9.800;2024-01-30T10:37:11;6.93;;;6.40;;
12228;SDS011;6177;52.402;9.800;2024-01-30T10:39:42;6.60;;;6.20;;
12228;SDS011;6177;52.402;9.800;2024-01-30T10:42:18;7.60;;;7.00;;
12228;SDS011;6177;52.402;9.800;2024-01-30T10:47:32;6.90;;;6.40;;
12228;SDS011;6177;52.402;9.800;2024-01-30T10:49:59;7.40;;;6.70;;
12228;SDS011;6177;52.402;9.800;2024-01-30T10:52:26;7.90;;;7.30;;
12228;SDS011;6177;52.402;9.800;2024-01-30T10:54:51;7.17;;;6.67;;
12228;SDS011;6177;52.402;9.800;2024-01-30T10:57:18;7.40;;;6.87;;
12228;SDS011;6177;52.402;9.800;2024-01-30T10:59:44;7.40;;;6.80;;
12228;SDS011;6177;52.402;9.800;2024-01-30T11:02:10;7.87;;;7.07;;
12228;SDS011;6177;52.402;9.800;2024-01-30T11:04:42;7.30;;;6.70;;
12228;SDS011;6177;52.402;9.800;2024-01-30T11:07:17;7.23;;;6.70;;
12228;SDS011;6177;52.402;9.800;2024-01-30T11:12:25;7.57;;;6.90;;
12228;SDS011;6177;52.402;9.800;2024-01-30T11:15:12;7.50;;;6.80;;
12228;SDS011;6177;52.402;9.800;2024-01-30T11:20:27;7.90;;;6.70;;
12228;SDS011;6177;52.402;9.800;2024-01-30T11:22:56;7.80;;;6.53;;
12228;SDS011;6177;52.402;9.800;2024-01-30T11:25:23;7.07;;;6.57;;
12228;SDS011;6177;52.402;9.800;2024-01-30T11:27:50;7.80;;;7.10;;
12228;SDS011;6177;52.402;9.800;2024-01-30T11:30:23;7.03;;;6.53;;
12228;SDS011;6177;52.402;9.800;2024-01-30T11:33:06;7.40;;;6.90;;
12228;SDS011;6177;52.402;9.800;2024-01-30T11:35:34;7.30;;;6.63;;
12228;SDS011;6177;52.402;9.800;2024-01-30T11:38:01;7.30;;;6.70;;
12228;SDS011;6177;52.402;9.800;2024-01-30T11:40:30;7.97;;;7.37;;
12228;SDS011;6177;52.402;9.800;2024-01-30T11:42:57;7.83;;;7.23;;
12228;SDS011;6177;52.402;9.800;2024-01-30T11:45:24;7.63;;;7.13;;
12228;SDS011;6177;52.402;9.800;2024-01-30T11:47:49;7.73;;;7.23;;
12228;SDS011;6177;52.402;9.800;2024-01-30T11:50:15;7.27;;;6.57;;
12228;SDS011;6177;52.402;9.800;2024-01-30T11:52:41;7.67;;;7.00;;
12228;SDS011;6177;52.402;9.800;2024-01-30T11:55:08;7.13;;;6.43;;
12228;SDS011;6177;52.402;9.800;2024-01-30T11:57:35;7.27;;;6.60;;
12228;SDS011;6177;52.402;9.800;2024-01-30T12:00:02;6.73;;;6.13;;
12228;SDS011;6177;52.402;9.800;2024-01-30T12:02:41;7.70;;;7.00;;
12228;SDS011;6177;52.402;9.800;2024-01-30T12:05:07;7.00;;;6.40;;
12228;SDS011;6177;52.402;9.800;2024-01-30T12:07:33;7.33;;;6.83;;
12228;SDS011;6177;52.402;9.800;2024-01-30T12:09:59;8.47;;;7.17;;
12228;SDS011;6177;52.402;9.800;2024-01-30T12:12:25;7.30;;;6.50;;
12228;SDS011;6177;52.402;9.800;2024-01-30T12:14:51;8.03;;;7.10;;
12228;SDS011;6177;52.402;9.800;2024-01-30T12:17:32;9.13;;;7.63;;
12228;SDS011;6177;52.402;9.800;2024-01-30T12:20:05;7.57;;;7.07;;
12228;SDS011;6177;52.402;9.800;2024-01-30T12:22:53;7.00;;;6.60;;
12228;SDS011;6177;52.402;9.800;2024-01-30T12:25:20;8.47;;;7.10;;
12228;SDS011;6177;52.402;9.800;2024-01-30T12:27:46;7.17;;;6.63;;
12228;SDS011;6177;52.402;9.800;2024-01-30T12:30:15;6.83;;;6.23;;
12228;SDS011;6177;52.402;9.800;2024-01-30T12:32:42;7.13;;;6.60;;
12228;SDS011;6177;52.402;9.800;2024-01-30T12:35:11;7.33;;;6.83;;
12228;SDS011;6177;52.402;9.800;2024-01-30T12:37:38;8.93;;;7.97;;
12228;SDS011;6177;52.402;9.800;2024-01-30T12:40:04;8.37;;;7.73;;
12228;SDS011;6177;52.402;9.800;2024-01-30T12:42:31;6.73;;;6.03;;
12228;SDS011;6177;52.402;9.800;2024-01-30T12:44:59;6.87;;;6.20;;
12228;SDS011;6177;52.402;9.800;2024-01-30T12:47:25;6.63;;;6.17;;
12228;SDS011;6177;52.402;9.800;2024-01-30T12:49:51;6.50;;;6.00;;
12228;SDS011;6177;52.402;9.800;2024-01-30T12:52:20;7.17;;;6.57;;
12228;SDS011;6177;52.402;9.800;2024-01-30T12:54:49;7.37;;;6.87;;
12228;SDS011;6177;52.402;9.800;2024-01-30T12:57:15;6.90;;;6.43;;
12228;SDS011;6177;52.402;9.800;2024-01-30T12:59:41;7.40;;;6.80;;
12228;SDS011;6177;52.402;9.800;2024-01-30T13:02:09;6.93;;;6.33;;
12228;SDS011;6177;52.402;9.800;2024-01-30T13:04:35;7.93;;;6.47;;
12228;SDS011;6177;52.402;9.800;2024-01-30T13:07:01;7.73;;;6.93;;
12228;SDS011;6177;52.402;9.800;2024-01-30T13:09:26;7.60;;;6.90;;
12228;SDS011;6177;52.402;9.800;2024-01-30T13:11:52;7.30;;;6.80;;
12228;SDS011;6177;52.402;9.800;2024-01-30T13:14:18;7.53;;;6.87;;
12228;SDS011;6177;52.402;9.800;2024-01-30T13:16:44;7.47;;;6.73;;
12228;SDS011;6177;52.402;9.800;2024-01-30T13:19:10;7.30;;;6.60;;
12228;SDS011;6177;52.402;9.800;2024-01-30T13:21:36;7.07;;;6.47;;
12228;SDS011;6177;52.402;9.800;2024-01-30T13:24:01;7.57;;;6.97;;
12228;SDS011;6177;52.402;9.800;2024-01-30T13:26:26;7.33;;;6.67;;
12228;SDS011;6177;52.402;9.800;2024-01-30T13:28:52;6.77;;;6.17;;
12228;SDS011;6177;52.402;9.800;2024-01-30T13:31:18;6.23;;;5.83;;
12228;SDS011;6177;52.402;9.800;2024-01-30T13:33:44;6.23;;;5.83;;
12228;SDS011;6177;52.402;9.800;2024-01-30T13:36:10;6.60;;;6.07;;
12228;SDS011;6177;52.402;9.800;2024-01-30T13:38:36;6.27;;;5.87;;
12228;SDS011;6177;52.402;9.800;2024-01-30T13:41:02;6.90;;;6.20;;
12228;SDS011;6177;52.402;9.800;2024-01-30T13:43:28;6.70;;;6.10;;
12228;SDS011;6177;52.402;9.800;2024-01-30T13:45:53;6.43;;;5.93;;
12228;SDS011;6177;52.402;9.800;2024-01-30T13:48:19;7.23;;;6.50;;
12228;SDS011;6177;52.402;9.800;2024-01-30T13:50:44;6.33;;;5.83;;
12228;SDS011;6177;52.402;9.800;2024-01-30T13:53:11;6.23;;;5.73;;
12228;SDS011;6177;52.402;9.800;2024-01-30T13:55:36;6.77;;;6.17;;
12228;SDS011;6177;52.402;9.800;2024-01-30T13:58:03;6.60;;;6.00;;
12228;SDS011;6177;52.402;9.800;2024-01-30T14:00:28;6.83;;;6.23;;
12228;SDS011;6177;52.402;9.800;2024-01-30T14:02:54;6.27;;;5.67;;
12228;SDS011;6177;52.402;9.800;2024-01-30T14:05:20;6.33;;;5.93;;
12228;SDS011;6177;52.402;9.800;2024-01-30T14:07:46;7.63;;;6.57;;
12228;SDS011;6177;52.402;9.800;2024-01-30T14:10:12;7.00;;;6.37;;
12228;SDS011;6177;52.402;9.800;2024-01-30T14:12:37;7.10;;;6.33;;
12228;SDS011;6177;52.402;9.800;2024-01-30T14:15:03;7.07;;;6.37;;
12228;SDS011;6177;52.402;9.800;2024-01-30T14:17:29;6.23;;;5.73;;
12228;SDS011;6177;52.402;9.800;2024-01-30T14:19:54;6.80;;;6.30;;
12228;SDS011;6177;52.402;9.800;2024-01-30T14:22:20;5.77;;;5.27;;
12228;SDS011;6177;52.402;9.800;2024-01-30T14:24:46;7.23;;;5.83;;
12228;SDS011;6177;52.402;9.800;2024-01-30T14:27:12;7.53;;;6.60;;
12228;SDS011;6177;52.402;9.800;2024-01-30T14:29:37;6.40;;;5.83;;
12228;SDS011;6177;52.402;9.800;2024-01-30T14:32:03;7.00;;;6.40;;
12228;SDS011;6177;52.402;9.800;2024-01-30T14:34:29;7.20;;;6.60;;
12228;SDS011;6177;52.402;9.800;2024-01-30T14:36:55;6.17;;;5.77;;
12228;SDS011;6177;52.402;9.800;2024-01-30T14:39:21;7.13;;;6.53;;
12228;SDS011;6177;52.402;9.800;2024-01-30T14:41:47;7.03;;;6.37;;
12228;SDS011;6177;52.402;9.800;2024-01-30T14:44:13;6.80;;;6.30;;
12228;SDS011;6177;52.402;9.800;2024-01-30T14:46:39;6.83;;;6.23;;
12228;SDS011;6177;52.402;9.800;2024-01-30T14:49:04;7.07;;;6.00;;
12228;SDS011;6177;52.402;9.800;2024-01-30T14:51:31;6.90;;;6.37;;
12228;SDS011;6177;52.402;9.800;2024-01-30T14:53:58;7.73;;;7.13;;
12228;SDS011;6177;52.402;9.800;2024-01-30T14:56:24;6.57;;;5.97;;
12228;SDS011;6177;52.402;9.800;2024-01-30T14:58:50;7.30;;;6.73;;
12228;SDS011;6177;52.402;9.800;2024-01-30T15:01:15;6.50;;;6.03;;